createdAt,value
2019-01-14T00:00:22.666Z,2
2019-01-14T00:05:28.126Z,1.8
2019-01-14T00:10:33.540Z,1.8
2019-01-14T00:15:38.734Z,1.8
2019-01-14T00:20:42.952Z,1.9
2019-01-14T00:25:48.826Z,1.8
2019-01-14T00:30:53.045Z,1.6
2019-01-14T00:35:58.859Z,1.8
2019-01-14T00:41:06.808Z,1.9
2019-01-14T00:46:12.143Z,1.5
2019-01-14T00:51:20.941Z,1.9
2019-01-14T00:56:26.747Z,1.8
2019-01-14T01:01:31.776Z,1.6
2019-01-14T01:06:37.766Z,1.6
2019-01-14T01:11:43.532Z,1.7
2019-01-14T01:16:49.148Z,1.5
2019-01-14T01:21:54.913Z,1.6
2019-01-14T01:27:00.584Z,1.6
2019-01-14T01:32:06.557Z,1.8
2019-01-14T01:37:11.568Z,1.4
2019-01-14T01:42:15.846Z,1.6
2019-01-14T01:47:21.739Z,1.6
2019-01-14T01:52:27.413Z,1.5
2019-01-14T01:57:34.801Z,1.6
2019-01-14T02:02:40.857Z,1.4
2019-01-14T02:07:47.090Z,1.4
2019-01-14T02:12:51.264Z,1.7
2019-01-14T02:17:59.636Z,1.6
2019-01-14T02:23:03.623Z,1.6
2019-01-14T02:28:11.855Z,1.4
2019-01-14T02:33:18.343Z,1.4
2019-01-14T02:38:23.713Z,1.4
2019-01-14T02:43:29.515Z,1.3
2019-01-14T02:48:34.901Z,1.4
2019-01-14T02:53:40.604Z,1.4
2019-01-14T02:58:46.504Z,1.2
2019-01-14T03:03:51.664Z,1.4
2019-01-14T03:08:57.226Z,1.6
2019-01-14T03:14:01.652Z,1.5
2019-01-14T03:19:06.720Z,1.5
2019-01-14T03:24:12.485Z,1.5
2019-01-14T03:29:17.967Z,1.5
2019-01-14T03:34:23.804Z,1.5
2019-01-14T03:39:29.276Z,1.7
2019-01-14T03:44:35.087Z,1.5
2019-01-14T03:49:40.216Z,1.3
2019-01-14T03:54:46.022Z,1.5
2019-01-14T03:59:52.174Z,1.6
2019-01-14T04:04:57.878Z,1.3
2019-01-14T04:10:03.176Z,1.6
2019-01-14T04:15:08.796Z,1.2
2019-01-14T04:20:14.447Z,1.3
2019-01-14T04:25:19.651Z,1.6
2019-01-14T04:30:25.088Z,1.5
2019-01-14T04:35:30.298Z,1.3
2019-01-14T04:40:35.658Z,1.5
2019-01-14T04:45:41.513Z,1.6
2019-01-14T04:50:46.688Z,1.5
2019-01-14T04:55:52.337Z,1.5
2019-01-14T05:00:58.013Z,1.5
2019-01-14T05:06:03.705Z,1.2
2019-01-14T05:11:09.289Z,1.7
2019-01-14T05:16:14.736Z,1.8
2019-01-14T05:21:20.248Z,1.7
2019-01-14T05:26:24.917Z,1.6
2019-01-14T05:31:29.892Z,1.5
2019-01-14T05:36:35.585Z,1.7
2019-01-14T05:41:41.224Z,1.5
2019-01-14T05:46:50.744Z,1.6
2019-01-14T05:51:56.375Z,1.5
2019-01-14T05:57:02.055Z,1.6
2019-01-14T06:02:07.285Z,1.5
2019-01-14T06:07:13.072Z,1.7
2019-01-14T06:12:18.098Z,1.6
2019-01-14T06:17:23.813Z,1.5
2019-01-14T06:22:29.337Z,1.8
2019-01-14T06:27:34.777Z,1.6
2019-01-14T06:32:40.275Z,1.5
2019-01-14T06:37:52.050Z,1.6
2019-01-14T06:42:48.148Z,1.5
2019-01-14T06:47:51.960Z,1.8
2019-01-14T06:52:57.328Z,1.6
2019-01-14T06:58:03.132Z,1.6
2019-01-14T07:03:08.020Z,1.5
2019-01-14T07:08:13.242Z,1.7
2019-01-14T07:13:18.240Z,1.7
2019-01-14T07:18:23.686Z,1.4
2019-01-14T07:23:29.309Z,1.5
2019-01-14T07:28:34.573Z,1.4
2019-01-14T07:33:39.756Z,1.6
2019-01-14T07:38:45.080Z,1.3
2019-01-14T07:43:50.060Z,1.4
2019-01-14T07:48:55.794Z,1.3
2019-01-14T07:54:00.770Z,1.4
2019-01-14T07:59:05.898Z,1.5
2019-01-14T08:04:11.061Z,1.5
2019-01-14T08:09:16.739Z,1.4
2019-01-14T08:14:21.950Z,1.3
2019-01-14T08:19:27.536Z,1.4
2019-01-14T08:24:32.564Z,1.2
2019-01-14T08:29:37.851Z,1.5
2019-01-14T08:34:43.330Z,1.7
2019-01-14T08:39:48.890Z,1.2
2019-01-14T08:44:54.080Z,1.2
2019-01-14T08:49:59.496Z,1.3
2019-01-14T08:55:04.553Z,1.2
2019-01-14T09:00:09.821Z,1.4
2019-01-14T09:05:15.292Z,1.2
2019-01-14T09:10:20.471Z,1.1
2019-01-14T09:15:24.360Z,1.6
2019-01-14T09:20:29.398Z,1.2
2019-01-14T09:25:34.371Z,1.2
2019-01-14T09:30:40.045Z,1
2019-01-14T09:35:45.724Z,1.1
2019-01-14T09:40:51.074Z,1.1
2019-01-14T09:45:57.053Z,1.2
2019-01-14T09:51:02.632Z,1
2019-01-14T09:56:07.784Z,1.1
2019-01-14T10:01:13.431Z,3
2019-01-14T10:06:18.811Z,14
2019-01-14T10:11:24.792Z,6.6
2019-01-14T10:16:30.452Z,4.9
2019-01-14T10:21:35.845Z,4.1
2019-01-14T10:26:41.460Z,3.6
2019-01-14T10:31:46.663Z,3.5
2019-01-14T10:36:52.112Z,3
2019-01-14T10:41:57.871Z,3
2019-01-14T10:47:03.315Z,2.8
2019-01-14T10:52:08.824Z,2.9
2019-01-14T10:57:14.263Z,2.2
2019-01-14T11:02:20.056Z,1.9
2019-01-14T11:07:23.901Z,1.9
2019-01-14T11:12:28.938Z,2.1
2019-01-14T11:17:34.603Z,2
2019-01-14T11:22:40.100Z,1.7
2019-01-14T11:27:45.710Z,1.7
2019-01-14T11:32:51.150Z,1.5
2019-01-14T11:37:56.859Z,1.5
2019-01-14T11:43:02.268Z,1.6
2019-01-14T11:48:07.285Z,1.2
2019-01-14T11:53:13.876Z,1.3
2019-01-14T11:58:18.123Z,1.4
2019-01-14T12:03:23.984Z,1.2
2019-01-14T12:08:29.387Z,1.4
2019-01-14T12:13:35.204Z,1.3
2019-01-14T12:18:40.302Z,1.3
2019-01-14T12:23:45.519Z,1.2
2019-01-14T12:28:49.329Z,1.3
2019-01-14T12:33:54.800Z,1.2
2019-01-14T12:38:59.913Z,1.1
2019-01-14T12:44:03.525Z,1.1
2019-01-14T12:49:08.612Z,1.2
2019-01-14T12:54:13.876Z,1
2019-01-14T12:59:18.844Z,1
2019-01-14T13:04:23.819Z,1.1
2019-01-14T13:09:29.882Z,1.1
2019-01-14T13:14:35.721Z,1
2019-01-14T13:19:40.093Z,1
2019-01-14T13:24:46.418Z,1.2
2019-01-14T13:29:51.433Z,1.2
2019-01-14T13:34:57.482Z,1.5
2019-01-14T13:40:02.480Z,1.2
2019-01-14T13:45:08.217Z,1.2
2019-01-14T13:50:13.971Z,1.2
2019-01-14T13:55:18.253Z,1.3
2019-01-14T14:00:22.184Z,1.2
2019-01-14T14:05:26.308Z,1.3
2019-01-14T14:10:31.899Z,1.3
2019-01-14T14:15:36.959Z,41.7
2019-01-14T14:20:42.752Z,50.8
2019-01-14T14:25:48.075Z,27.5
2019-01-14T14:30:53.462Z,24.4
2019-01-14T14:35:58.757Z,20.5
2019-01-14T14:41:04.053Z,17.1
2019-01-14T14:46:09.835Z,4.8
2019-01-14T14:51:15.996Z,5.1
2019-01-14T14:56:25.658Z,5.1
2019-01-14T15:01:29.952Z,5.1
2019-01-14T15:06:35.140Z,5
2019-01-14T15:11:40.116Z,4.5
2019-01-14T15:16:45.875Z,4.5
2019-01-14T15:21:51.114Z,4.2
2019-01-14T15:26:56.242Z,3.8
2019-01-14T15:32:01.224Z,3.7
2019-01-14T15:37:07.034Z,3.6
2019-01-14T15:42:12.612Z,3.8
2019-01-14T15:47:18.424Z,3.4
2019-01-14T15:52:23.853Z,3.4
2019-01-14T15:57:29.990Z,3.2
2019-01-14T16:02:36.405Z,3.2
2019-01-14T16:07:42.672Z,3.1
2019-01-14T16:12:47.929Z,3
2019-01-14T16:17:54.210Z,2.8
2019-01-14T16:23:00.197Z,3.1
2019-01-14T16:28:05.871Z,3.1
2019-01-14T16:33:10.888Z,2.9
2019-01-14T16:38:16.603Z,3.1
2019-01-14T16:43:22.560Z,3.3
2019-01-14T16:48:28.292Z,2.7
2019-01-14T16:53:34.090Z,2.9
2019-01-14T16:58:39.729Z,2.9
2019-01-14T17:03:45.400Z,2.7
2019-01-14T17:08:50.582Z,2.8
2019-01-14T17:13:56.266Z,2.6
2019-01-14T17:19:02.553Z,2.5
2019-01-14T17:24:07.908Z,2.4
2019-01-14T17:29:14.108Z,3
2019-01-14T17:34:19.530Z,2.7
2019-01-14T17:39:25.036Z,2.7
2019-01-14T17:44:30.357Z,2.8
2019-01-14T17:49:36.577Z,2.6
2019-01-14T17:54:42.238Z,2.6
2019-01-14T17:59:47.945Z,2.4
2019-01-14T18:04:53.488Z,2.6
2019-01-14T18:09:59.849Z,2.8
2019-01-14T18:15:05.820Z,3.1
2019-01-14T18:20:11.796Z,5
2019-01-14T18:25:17.206Z,5.2
2019-01-14T18:30:22.280Z,4.7
2019-01-14T18:35:28.194Z,3.8
2019-01-14T18:40:35.405Z,3.3
2019-01-14T18:45:40.560Z,3.2
2019-01-14T18:50:45.815Z,2.7
2019-01-14T18:55:51.487Z,2.9
2019-01-14T19:00:57.040Z,3
2019-01-14T19:06:02.151Z,3.6
2019-01-14T19:11:07.394Z,2.8
2019-01-14T19:16:12.970Z,3.2
2019-01-14T19:21:18.245Z,2.7
2019-01-14T19:26:23.484Z,2.9
2019-01-14T19:31:29.627Z,2.8
2019-01-14T19:36:35.113Z,2.6
2019-01-14T19:41:40.617Z,2.6
2019-01-14T19:46:46.033Z,2.6
2019-01-14T19:51:50.560Z,2.9
2019-01-14T19:56:55.825Z,2.8
2019-01-14T20:02:01.811Z,2.9
2019-01-14T20:07:12.903Z,3
2019-01-14T20:12:08.185Z,2.6
2019-01-14T20:17:13.890Z,2.8
2019-01-14T20:22:18.437Z,2.6
2019-01-14T20:27:23.693Z,2.7
2019-01-14T20:32:29.658Z,2.5
2019-01-14T20:37:35.264Z,2.7
2019-01-14T20:42:41.195Z,2.5
2019-01-14T20:47:46.677Z,2.4
2019-01-14T20:52:52.892Z,2.4
2019-01-14T20:57:58.584Z,2.3
2019-01-14T21:03:04.399Z,2.7
2019-01-14T21:08:10.275Z,2.3
2019-01-14T21:13:15.871Z,2.4
2019-01-14T21:18:21.009Z,2.6
2019-01-14T21:23:27.056Z,2.8
2019-01-14T21:28:32.856Z,2.9
2019-01-14T21:33:38.548Z,3
2019-01-14T21:38:43.659Z,3
2019-01-14T21:43:49.328Z,3.1
2019-01-14T21:48:58.539Z,3.3
2019-01-14T21:54:03.588Z,2.9
2019-01-14T21:59:08.939Z,3.1
2019-01-14T22:04:15.392Z,2.9
2019-01-14T22:09:21.365Z,2.7
2019-01-14T22:14:27.350Z,3.3
2019-01-14T22:19:32.855Z,2.7
2019-01-14T22:24:38.158Z,2.4
2019-01-14T22:29:43.185Z,2.4
2019-01-14T22:34:49.438Z,2.5
2019-01-14T22:39:54.942Z,2.5
2019-01-14T22:45:00.801Z,2.3
2019-01-14T22:50:06.002Z,2.4
2019-01-14T22:55:11.881Z,2.4
2019-01-14T23:00:17.439Z,2.4
2019-01-14T23:05:22.845Z,2.2
2019-01-14T23:10:28.700Z,2.3
2019-01-14T23:15:33.639Z,2.3
2019-01-14T23:20:39.461Z,1.9
2019-01-14T23:25:44.866Z,2
2019-01-14T23:30:50.685Z,2
2019-01-14T23:35:55.896Z,2.2
2019-01-14T23:41:00.050Z,2
2019-01-14T23:46:05.848Z,1.8
2019-01-14T23:51:10.917Z,1.9
2019-01-14T23:56:16.160Z,1.8
